TimeAKDT,TemperatureF,Dew PointF,Humidity,Sea Level PressureIn,VisibilityMPH,Wind Direction,Wind SpeedMPH,Gust SpeedMPH,PrecipitationIn,Events,Conditions,WindDirDegrees,DateUTC
12:56 AM,52.0,48.9,89,29.64,10.0,ENE,4.6,-,0.01,,Clear,60,2013-08-17 08:56:00
1:56 AM,50.0,46.9,89,29.64,10.0,Calm,Calm,-,N/A,,Clear,0,2013-08-17 09:56:00
2:56 AM,50.0,46.0,86,29.64,10.0,Calm,Calm,-,N/A,,Clear,0,2013-08-17 10:56:00
3:56 AM,50.0,46.9,89,29.63,10.0,Calm,Calm,-,N/A,,Clear,0,2013-08-17 11:56:00
4:56 AM,46.9,44.1,90,29.63,10.0,Calm,Calm,-,N/A,,Clear,0,2013-08-17 12:56:00
5:56 AM,46.9,44.1,90,29.63,10.0,NE,3.5,-,N/A,,Clear,50,2013-08-17 13:56:00
6:56 AM,48.0,45.0,89,29.63,10.0,Calm,Calm,-,N/A,,Clear,0,2013-08-17 14:56:00
7:56 AM,51.1,46.0,83,29.63,10.0,Calm,Calm,-,N/A,,Clear,0,2013-08-17 15:56:00
8:56 AM,54.0,48.0,80,29.62,10.0,Calm,Calm,-,N/A,,Clear,0,2013-08-17 16:56:00
9:56 AM,57.9,48.9,72,29.62,10.0,Calm,Calm,-,N/A,,Partly Cloudy,0,2013-08-17 17:56:00
10:56 AM,62.1,50.0,65,29.60,10.0,Calm,Calm,-,N/A,,Clear,0,2013-08-17 18:56:00
11:56 AM,64.9,50.0,58,29.60,10.0,Calm,Calm,-,N/A,,Partly Cloudy,0,2013-08-17 19:56:00
12:56 PM,66.0,51.1,59,29.59,10.0,WNW,3.5,-,N/A,,Partly Cloudy,290,2013-08-17 20:56:00
1:56 PM,69.1,51.1,53,29.57,10.0,West,4.6,-,N/A,,Mostly Cloudy,260,2013-08-17 21:56:00
2:56 PM,71.1,51.1,49,29.55,10.0,WNW,3.5,-,N/A,,Mostly Cloudy,300,2013-08-17 22:56:00
3:56 PM,73.0,46.0,38,29.54,10.0,NNW,5.8,-,N/A,,Mostly Cloudy,330,2013-08-17 23:56:00
4:56 PM,73.9,46.0,37,29.52,10.0,NNW,10.4,-,N/A,,Mostly Cloudy,340,2013-08-18 00:56:00
5:56 PM,73.9,48.0,40,29.51,10.0,NNW,9.2,-,N/A,,Partly Cloudy,330,2013-08-18 01:56:00
6:56 PM,71.1,48.9,45,29.50,10.0,NW,9.2,-,0.01,,Clear,310,2013-08-18 02:56:00
7:56 PM,69.1,48.9,49,29.50,10.0,NW,5.8,-,N/A,,Mostly Cloudy,310,2013-08-18 03:56:00
8:56 PM,66.9,48.9,52,29.50,10.0,NW,5.8,-,N/A,,Overcast,320,2013-08-18 04:56:00
9:56 PM,66.0,48.9,54,29.50,10.0,NNW,9.2,-,N/A,,Overcast,330,2013-08-18 05:56:00
10:56 PM,64.0,48.9,58,29.49,10.0,NW,8.1,-,N/A,,Overcast,320,2013-08-18 06:56:00
11:56 PM,63.0,50.0,63,29.49,10.0,NNW,5.8,-,N/A,,Overcast,340,2013-08-18 07:56:00